createdAt,value
2023-04-07T00:00:23.980Z,15.2
2023-04-07T00:01:39.288Z,16.9
2023-04-07T00:02:55.593Z,17.8
2023-04-07T00:04:11.878Z,17
2023-04-07T00:05:28.180Z,15.2
2023-04-07T00:06:44.460Z,14.9
2023-04-07T00:08:00.754Z,14.4
2023-04-07T00:09:17.060Z,14.9
2023-04-07T00:10:33.347Z,15.2
2023-04-07T00:11:49.639Z,14
2023-04-07T00:13:05.950Z,16.2
2023-04-07T00:14:22.238Z,16.1
2023-04-07T00:15:38.538Z,17.1
2023-04-07T00:16:54.829Z,16.7
2023-04-07T00:18:10.130Z,16.1
2023-04-07T00:19:26.439Z,16.2
2023-04-07T00:20:42.722Z,17.3
2023-04-07T00:21:59.026Z,17.5
2023-04-07T00:23:15.326Z,16.7
2023-04-07T00:24:31.606Z,17.7
2023-04-07T00:25:47.901Z,17.7
2023-04-07T00:27:04.197Z,17.4
2023-04-07T00:28:20.500Z,16.7
2023-04-07T00:29:36.781Z,16.2
2023-04-07T00:30:53.079Z,16.9
2023-04-07T00:32:09.386Z,17.9
2023-04-07T00:33:25.678Z,18.3
2023-04-07T00:34:40.978Z,18.8
2023-04-07T00:37:13.578Z,19.1
2023-04-07T00:38:29.863Z,19.7
2023-04-07T00:39:46.160Z,18.1
2023-04-07T00:41:02.457Z,18.7
2023-04-07T00:42:18.756Z,18.3
2023-04-07T00:43:35.047Z,17.1
2023-04-07T00:44:51.347Z,16.9
2023-04-07T00:46:06.652Z,16.5
2023-04-07T00:47:22.961Z,17.1
2023-04-07T00:48:39.256Z,16.1
2023-04-07T00:49:55.551Z,16.1
2023-04-07T00:51:11.845Z,16.1
2023-04-07T00:52:28.140Z,15.8
2023-04-07T00:53:44.420Z,15.2
2023-04-07T00:55:00.725Z,14.9
2023-04-07T00:56:17.022Z,14.4
2023-04-07T00:57:33.317Z,15.3
2023-04-07T00:58:49.610Z,15
2023-04-07T01:00:05.898Z,15.9
2023-04-07T01:01:22.194Z,15.2
2023-04-07T01:02:37.497Z,15.4
2023-04-07T01:03:53.813Z,15.2
2023-04-07T01:05:10.090Z,15.6
2023-04-07T01:06:26.385Z,16.6
2023-04-07T01:07:42.686Z,16.4
2023-04-07T01:08:58.989Z,17
2023-04-07T01:10:15.282Z,17.7
2023-04-07T01:11:31.573Z,18.1
2023-04-07T01:12:47.869Z,16.9
2023-04-07T01:14:04.164Z,17.5
2023-04-07T01:15:20.447Z,17.2
2023-04-07T01:16:36.742Z,17.3
2023-04-07T01:17:53.051Z,17.1
2023-04-07T01:19:09.346Z,16
2023-04-07T01:20:24.650Z,16.6
2023-04-07T01:21:40.939Z,17.2
2023-04-07T01:22:57.238Z,16
2023-04-07T01:24:13.539Z,17.1
2023-04-07T01:25:29.838Z,15.8
2023-04-07T01:26:46.114Z,16.2
2023-04-07T01:28:02.426Z,15.3
2023-04-07T01:29:18.720Z,15.6
2023-04-07T01:30:35.007Z,15.4
2023-04-07T01:31:51.310Z,14.5
2023-04-07T01:33:07.605Z,14
2023-04-07T01:34:23.885Z,14.7
2023-04-07T01:35:40.179Z,14.8
2023-04-07T01:38:11.801Z,14.6
2023-04-07T01:39:28.080Z,14.8
2023-04-07T01:40:44.385Z,14.2
2023-04-07T01:42:00.670Z,14.7
2023-04-07T01:43:16.965Z,14
2023-04-07T01:44:33.266Z,14.8
2023-04-07T01:45:49.555Z,14.1
2023-04-07T01:47:05.849Z,13.9
2023-04-07T01:48:22.152Z,13.6
2023-04-07T01:49:38.445Z,13.4
2023-04-07T01:50:54.747Z,12.8
2023-04-07T01:52:11.027Z,13.2
2023-04-07T01:53:26.342Z,13
2023-04-07T01:54:42.648Z,13
2023-04-07T01:55:58.927Z,13.5
2023-04-07T01:57:15.237Z,13.4
2023-04-07T01:58:31.531Z,12.9
2023-04-07T01:59:47.820Z,13.2
2023-04-07T02:01:04.116Z,12.5
2023-04-07T02:02:20.401Z,12.1
2023-04-07T02:03:36.699Z,12.2
2023-04-07T02:04:52.993Z,13
2023-04-07T02:06:09.289Z,13
2023-04-07T02:07:25.585Z,12.7
2023-04-07T02:09:58.159Z,12.6
2023-04-07T02:11:13.469Z,12.7
2023-04-07T02:12:29.766Z,12.8
2023-04-07T02:13:46.059Z,12.3
2023-04-07T02:15:02.355Z,12.1
2023-04-07T02:16:18.660Z,12.6
2023-04-07T02:17:34.944Z,12.1
2023-04-07T02:18:51.245Z,12.6
2023-04-07T02:20:07.546Z,12.7
2023-04-07T02:21:23.837Z,12.4
2023-04-07T02:22:40.126Z,12.4
2023-04-07T02:23:56.431Z,12.1
2023-04-07T02:25:12.709Z,12.7
2023-04-07T02:26:29.010Z,11.8
2023-04-07T02:27:44.328Z,12.1
2023-04-07T02:29:00.621Z,12.7
2023-04-07T02:30:16.913Z,12.7
2023-04-07T02:31:33.212Z,13.2
2023-04-07T02:32:49.507Z,13.2
2023-04-07T02:34:05.792Z,13.1
2023-04-07T02:36:38.393Z,13.3
2023-04-07T02:37:54.673Z,12.8
2023-04-07T02:39:10.981Z,13.5
2023-04-07T02:40:27.265Z,12.7
2023-04-07T02:41:43.574Z,12.9
2023-04-07T02:42:59.864Z,13.1
2023-04-07T02:44:15.166Z,12.7
2023-04-07T02:45:31.458Z,13
2023-04-07T02:46:47.757Z,12.4
2023-04-07T02:48:04.044Z,11.9
2023-04-07T02:49:20.343Z,12.7
2023-04-07T02:50:36.645Z,12.4
2023-04-07T02:51:52.928Z,12.6
2023-04-07T02:53:09.228Z,12.3
2023-04-07T02:54:25.539Z,12.2
2023-04-07T02:55:41.828Z,13.1
2023-04-07T02:56:58.125Z,12
2023-04-07T02:58:14.411Z,12.4
2023-04-07T02:59:30.704Z,12.4
2023-04-07T03:02:02.323Z,11.9
2023-04-07T03:03:18.603Z,12.1
2023-04-07T03:04:34.908Z,11.9
2023-04-07T03:07:07.498Z,11.4
2023-04-07T03:08:23.790Z,11.6
2023-04-07T03:09:40.091Z,11.4
2023-04-07T03:10:56.376Z,11.3
2023-04-07T03:12:12.683Z,11.4
2023-04-07T03:13:28.960Z,11.7
2023-04-07T03:14:45.272Z,12.1
2023-04-07T03:16:01.563Z,12.3
2023-04-07T03:17:16.866Z,11.9
2023-04-07T03:18:33.162Z,11.4
2023-04-07T03:19:49.453Z,11.7
2023-04-07T03:21:05.752Z,12.9
2023-04-07T03:22:22.050Z,12.8
2023-04-07T03:23:38.342Z,12.6
2023-04-07T03:24:54.639Z,13.1
2023-04-07T03:26:10.940Z,13.1
2023-04-07T03:27:27.221Z,13.2
2023-04-07T03:28:43.531Z,14
2023-04-07T03:29:59.818Z,13.4
2023-04-07T03:31:16.111Z,13.5
2023-04-07T03:32:32.402Z,13.3
2023-04-07T03:33:47.708Z,13.7
2023-04-07T03:35:04.003Z,14.5
2023-04-07T03:36:20.304Z,13.8
2023-04-07T03:37:36.607Z,14.5
2023-04-07T03:40:09.182Z,13.9
2023-04-07T03:41:25.478Z,15.2
2023-04-07T03:42:41.781Z,15.5
2023-04-07T03:43:58.074Z,15.5
2023-04-07T03:45:14.367Z,15.7
2023-04-07T03:46:30.677Z,15.3
2023-04-07T03:47:46.964Z,14.5
2023-04-07T03:49:03.256Z,15.4
2023-04-07T03:50:18.572Z,13.6
2023-04-07T03:51:34.853Z,13.6
2023-04-07T03:52:51.159Z,12.6
2023-04-07T03:54:07.445Z,12.2
2023-04-07T03:55:23.759Z,12
2023-04-07T03:56:40.048Z,12.2
2023-04-07T03:57:56.281Z,11.8
2023-04-07T03:59:12.583Z,12.2
2023-04-07T04:00:28.830Z,12.7
2023-04-07T04:01:45.073Z,13.9
2023-04-07T04:03:01.312Z,14
2023-04-07T04:04:17.558Z,12.9
2023-04-07T04:05:33.801Z,13
2023-04-07T04:06:49.065Z,12.3
2023-04-07T04:08:05.297Z,11.8
2023-04-07T04:10:37.781Z,11.8
2023-04-07T04:11:54.037Z,11.4
2023-04-07T04:13:10.276Z,11.8
2023-04-07T04:14:26.519Z,11.3
2023-04-07T04:15:42.754Z,11.4
2023-04-07T04:18:15.236Z,11
2023-04-07T04:19:31.474Z,10.9
2023-04-07T04:20:47.714Z,11.1
2023-04-07T04:22:03.964Z,11.4
2023-04-07T04:23:19.214Z,11.6
2023-04-07T04:24:35.456Z,12
2023-04-07T04:25:51.703Z,12.4
2023-04-07T04:27:07.945Z,12
2023-04-07T04:28:24.177Z,12.4
2023-04-07T04:29:40.414Z,12.3
2023-04-07T04:30:56.667Z,11.9
2023-04-07T04:32:12.909Z,11.6
2023-04-07T04:33:29.132Z,12.5
2023-04-07T04:34:45.375Z,12.7
2023-04-07T04:36:01.633Z,13
2023-04-07T04:37:17.862Z,12.6
2023-04-07T04:38:34.110Z,12.4
2023-04-07T04:41:05.593Z,13.9
2023-04-07T04:42:21.846Z,13.8
2023-04-07T04:43:38.076Z,14.1
2023-04-07T04:44:54.316Z,15.2
2023-04-07T04:46:10.572Z,14.6
2023-04-07T04:47:26.810Z,15.1
2023-04-07T04:48:43.055Z,14.5
2023-04-07T04:49:59.299Z,14.9
2023-04-07T04:51:15.536Z,15.7
2023-04-07T04:52:31.763Z,15.8
2023-04-07T04:53:48.023Z,15.2
2023-04-07T04:56:20.505Z,15.7
2023-04-07T04:57:35.756Z,15.8
2023-04-07T04:58:51.996Z,15.7
2023-04-07T05:00:08.229Z,16.8
2023-04-07T05:01:23.498Z,16.4
2023-04-07T05:02:39.742Z,17.1
2023-04-07T05:03:55.971Z,16.7
2023-04-07T05:06:28.470Z,16.1
2023-04-07T05:07:43.732Z,15.8
2023-04-07T05:08:58.971Z,16.3
2023-04-07T05:11:31.457Z,15.9
2023-04-07T05:12:47.699Z,15.9
2023-04-07T05:14:03.950Z,16.4
2023-04-07T05:15:20.180Z,16
2023-04-07T05:16:36.433Z,16.5
2023-04-07T05:19:08.914Z,17.1
2023-04-07T05:20:25.151Z,17.7
2023-04-07T05:21:41.395Z,17.9
2023-04-07T05:22:57.640Z,17.4
2023-04-07T05:24:12.894Z,17.4
2023-04-07T05:26:44.399Z,17.2
2023-04-07T05:28:00.623Z,16.8
2023-04-07T05:29:16.863Z,17.3
2023-04-07T05:30:33.110Z,17.8
2023-04-07T05:31:49.349Z,17.6
2023-04-07T05:34:21.844Z,18.5
2023-04-07T05:35:38.074Z,18.6
2023-04-07T05:36:54.329Z,19
2023-04-07T05:38:10.557Z,18.5
2023-04-07T05:39:26.802Z,17.9
2023-04-07T05:41:59.288Z,18.5
2023-04-07T05:43:14.540Z,18.6
2023-04-07T05:44:30.775Z,19
2023-04-07T05:45:47.031Z,18.8
2023-04-07T05:47:03.274Z,18.6
2023-04-07T05:49:35.748Z,18.9
2023-04-07T05:50:51.979Z,19.3
2023-04-07T05:52:08.221Z,19.6
2023-04-07T05:53:24.466Z,19.6
2023-04-07T05:54:40.716Z,19.1
2023-04-07T05:55:56.943Z,19.5
2023-04-07T05:57:13.180Z,19.2
2023-04-07T05:58:29.440Z,19.3
2023-04-07T05:59:44.680Z,19.6
2023-04-07T06:01:00.931Z,20
2023-04-07T06:02:17.169Z,20
2023-04-07T06:03:33.415Z,20.2
2023-04-07T06:04:49.652Z,20.5
2023-04-07T06:06:05.905Z,20.4
2023-04-07T06:07:22.130Z,20
2023-04-07T06:08:37.389Z,19.4
2023-04-07T06:09:52.660Z,20.4
2023-04-07T06:11:08.884Z,20.4
2023-04-07T06:12:25.132Z,19.9
2023-04-07T06:13:41.385Z,20.3
2023-04-07T06:14:57.620Z,19.1
2023-04-07T06:16:13.849Z,19.8
2023-04-07T06:17:30.102Z,19.5
2023-04-07T06:18:46.346Z,19.8
2023-04-07T06:20:02.576Z,19.8
2023-04-07T06:21:18.814Z,18.3
2023-04-07T06:22:34.090Z,19.1
2023-04-07T06:23:49.346Z,19.2
2023-04-07T06:25:05.575Z,19
2023-04-07T06:26:21.821Z,19.1
2023-04-07T06:27:38.061Z,19.5
2023-04-07T06:28:54.296Z,19.1
2023-04-07T06:30:10.551Z,18.4
2023-04-07T06:31:26.779Z,18.3
2023-04-07T06:32:43.036Z,18.6
2023-04-07T06:35:15.502Z,17.4
2023-04-07T06:36:31.758Z,18.7
2023-04-07T06:37:47.984Z,17.7
2023-04-07T06:39:04.238Z,17.9
2023-04-07T06:40:19.494Z,17
2023-04-07T06:42:51.962Z,16.9
2023-04-07T06:44:08.364Z,16.9
2023-04-07T06:45:23.605Z,16.5
2023-04-07T06:47:56.085Z,15.7
2023-04-07T06:50:28.565Z,15
2023-04-07T06:51:44.805Z,16.1
2023-04-07T06:53:01.061Z,16.2
2023-04-07T06:54:17.301Z,16
2023-04-07T06:55:33.544Z,16.1
2023-04-07T06:56:49.778Z,16.1
2023-04-07T06:58:06.019Z,16.3
2023-04-07T06:59:22.256Z,16
2023-04-07T07:00:38.649Z,16.6
2023-04-07T07:01:55.015Z,16.7
2023-04-07T07:03:11.253Z,17
2023-04-07T07:05:43.736Z,16.4
2023-04-07T07:06:59.975Z,16.5
2023-04-07T07:08:16.200Z,16.6
2023-04-07T07:09:32.439Z,16.3
2023-04-07T07:10:48.691Z,16.8
2023-04-07T07:12:04.935Z,15.7
2023-04-07T07:13:21.173Z,16.3
2023-04-07T07:14:37.416Z,16
2023-04-07T07:15:53.659Z,16
2023-04-07T07:17:09.890Z,15.5
2023-04-07T07:18:26.255Z,16.1
2023-04-07T07:20:58.732Z,15.3
2023-04-07T07:22:14.978Z,15.6
2023-04-07T07:23:31.216Z,15.4
2023-04-07T07:24:47.451Z,14.9
2023-04-07T07:26:03.700Z,15.5
2023-04-07T07:27:19.939Z,15
2023-04-07T07:28:36.177Z,14.4
2023-04-07T07:29:52.421Z,14.5
2023-04-07T07:31:08.667Z,14
2023-04-07T07:32:23.934Z,13.7
2023-04-07T07:33:39.172Z,13.9
2023-04-07T07:34:55.420Z,14
2023-04-07T07:36:11.657Z,14.2
2023-04-07T07:37:27.893Z,14.2
2023-04-07T07:38:44.137Z,14.7
2023-04-07T07:40:00.394Z,14.6
2023-04-07T07:41:16.615Z,14.2
2023-04-07T07:42:32.855Z,13.5
2023-04-07T07:43:49.115Z,13.6
2023-04-07T07:45:05.352Z,14.1
2023-04-07T07:46:20.604Z,13.8
2023-04-07T07:47:35.863Z,13.1
2023-04-07T07:48:52.114Z,13.4
2023-04-07T07:51:24.593Z,12.9
2023-04-07T07:52:40.822Z,13
2023-04-07T07:53:57.060Z,12.7
2023-04-07T07:55:13.304Z,12.9
2023-04-07T07:56:29.549Z,12.9
2023-04-07T07:57:45.780Z,12.4
2023-04-07T07:59:02.022Z,13
2023-04-07T08:00:18.281Z,12.8
2023-04-07T08:01:34.525Z,12.5
2023-04-07T08:02:50.759Z,12.3
2023-04-07T08:04:07.002Z,12.1
2023-04-07T08:05:22.243Z,12.2
2023-04-07T08:06:38.500Z,12.5
2023-04-07T08:07:54.733Z,12.4
2023-04-07T08:09:10.980Z,11.5
2023-04-07T08:10:27.209Z,11.9
2023-04-07T08:11:43.462Z,11.7
2023-04-07T08:12:59.688Z,12.3
2023-04-07T08:14:15.941Z,12.4
2023-04-07T08:15:32.185Z,12.2
2023-04-07T08:16:48.411Z,11.7
2023-04-07T08:18:04.663Z,12.3
2023-04-07T08:19:20.895Z,12.5
2023-04-07T08:20:37.141Z,11.5
2023-04-07T08:21:53.498Z,11.9
2023-04-07T08:23:09.744Z,11.4
2023-04-07T08:24:25.982Z,11.2
2023-04-07T08:25:42.211Z,11.5
2023-04-07T08:26:58.454Z,11.7
2023-04-07T08:28:14.709Z,11.3
2023-04-07T08:29:30.944Z,11.1
2023-04-07T08:30:47.185Z,11.1
2023-04-07T08:32:03.413Z,11.3
2023-04-07T08:33:19.675Z,10.2
2023-04-07T08:34:35.915Z,10.2
2023-04-07T08:35:52.141Z,11
2023-04-07T08:37:08.387Z,10.7
2023-04-07T08:38:24.740Z,11.1
2023-04-07T08:39:40.978Z,11.6
2023-04-07T08:40:57.222Z,10.4
2023-04-07T08:42:13.459Z,10.2
2023-04-07T08:43:29.710Z,10.2
2023-04-07T08:44:45.939Z,10.3
2023-04-07T08:46:02.182Z,10.7
2023-04-07T08:47:18.423Z,10.1
2023-04-07T08:48:34.000Z,9.6
2023-04-07T08:49:50.918Z,10
2023-04-07T08:52:23.390Z,9.9
2023-04-07T08:53:39.625Z,9.7
2023-04-07T08:54:54.894Z,8.8
2023-04-07T08:56:11.132Z,9.3
2023-04-07T08:57:27.361Z,9
2023-04-07T08:58:43.602Z,9.5
2023-04-07T08:59:59.842Z,9.9
2023-04-07T09:01:16.077Z,9.3
2023-04-07T09:02:32.318Z,9.1
2023-04-07T09:03:48.570Z,9.5
2023-04-07T09:05:04.810Z,10
2023-04-07T09:06:21.045Z,9.7
2023-04-07T09:07:37.292Z,8.9
2023-04-07T09:08:53.527Z,9
2023-04-07T09:10:09.768Z,8.1
2023-04-07T09:11:25.025Z,8.7
2023-04-07T09:12:41.262Z,8.7
2023-04-07T09:13:57.000Z,9.3
2023-04-07T09:15:13.750Z,8.9
2023-04-07T09:16:28.993Z,9
2023-04-07T09:17:45.244Z,9
2023-04-07T09:19:01.488Z,8.9
2023-04-07T09:20:17.723Z,9.2
2023-04-07T09:22:50.200Z,9.2
2023-04-07T09:24:06.450Z,9.1
2023-04-07T09:25:22.682Z,9
2023-04-07T09:26:38.912Z,8.8
2023-04-07T09:27:55.164Z,9.9
2023-04-07T09:29:11.408Z,8.5
2023-04-07T09:30:27.632Z,9.2
2023-04-07T09:31:43.878Z,8.8
2023-04-07T09:32:59.133Z,8.6
2023-04-07T09:34:15.376Z,9
2023-04-07T09:35:31.608Z,9.4
2023-04-07T09:36:47.849Z,9.5
2023-04-07T09:38:04.088Z,9
2023-04-07T09:39:20.332Z,9
2023-04-07T09:40:36.571Z,8.8
2023-04-07T09:41:52.816Z,9.2
2023-04-07T09:43:09.053Z,9.3
2023-04-07T09:44:25.299Z,9.6
2023-04-07T09:45:41.548Z,9.5
2023-04-07T09:46:57.777Z,9.2
2023-04-07T09:48:14.018Z,10.1
2023-04-07T09:49:29.273Z,9.3
2023-04-07T09:50:45.519Z,9.7
2023-04-07T09:53:17.996Z,9.7
2023-04-07T09:54:34.242Z,9.7
2023-04-07T09:55:50.473Z,8.7
2023-04-07T09:57:06.713Z,9.5
2023-04-07T09:58:22.960Z,8.8
2023-04-07T09:59:39.185Z,8.6
2023-04-07T10:00:55.446Z,7.8
2023-04-07T10:02:11.668Z,8.3
2023-04-07T10:03:27.908Z,8.8
2023-04-07T10:04:44.154Z,8.3
2023-04-07T10:05:59.406Z,9.9
2023-04-07T10:07:15.642Z,10
2023-04-07T10:08:31.887Z,9.5
2023-04-07T10:09:48.130Z,9.3
2023-04-07T10:11:04.372Z,9.4
2023-04-07T10:12:20.617Z,9.3
2023-04-07T10:13:36.854Z,9.7
2023-04-07T10:14:53.095Z,9.8
2023-04-07T10:16:09.335Z,8.8
2023-04-07T10:17:25.565Z,9.8
2023-04-07T10:18:41.808Z,9.4
2023-04-07T10:19:58.058Z,9.4
2023-04-07T10:21:14.284Z,9.1
2023-04-07T10:22:29.548Z,9.4
2023-04-07T10:23:45.777Z,9.1
2023-04-07T10:25:02.032Z,9.2
2023-04-07T10:26:18.274Z,9.9
2023-04-07T10:27:34.517Z,10
2023-04-07T10:28:50.757Z,9.8
2023-04-07T10:30:06.987Z,9.6
2023-04-07T10:31:23.218Z,9.5
2023-04-07T10:32:39.473Z,9.8
2023-04-07T10:33:55.702Z,10.2
2023-04-07T10:35:11.949Z,10.1
2023-04-07T10:36:28.190Z,10.1
2023-04-07T10:37:44.428Z,10.4
2023-04-07T10:39:00.666Z,10.2
2023-04-07T10:40:15.925Z,10
2023-04-07T10:41:32.164Z,9.9
2023-04-07T10:42:48.411Z,10.1
2023-04-07T10:44:04.635Z,9.9
2023-04-07T10:45:20.886Z,9.9
2023-04-07T10:46:37.123Z,10.1
2023-04-07T10:47:53.360Z,10.9
2023-04-07T10:49:09.594Z,10.3
2023-04-07T10:50:25.850Z,11.1
2023-04-07T10:51:42.084Z,10.8
2023-04-07T10:54:14.571Z,11
2023-04-07T10:55:30.797Z,10.9
2023-04-07T10:56:46.069Z,10.2
2023-04-07T10:58:02.298Z,10.5
2023-04-07T10:59:18.546Z,10.4
2023-04-07T11:00:34.786Z,10.4
2023-04-07T11:01:51.023Z,11
2023-04-07T11:03:07.250Z,9.8
2023-04-07T11:04:23.498Z,10.1
2023-04-07T11:05:39.729Z,10.1
2023-04-07T11:06:55.985Z,9.1
2023-04-07T11:08:12.214Z,10.1
2023-04-07T11:09:28.458Z,9.8
2023-04-07T11:10:44.705Z,9.9
2023-04-07T11:12:00.946Z,10.5
2023-04-07T11:13:16.191Z,10
2023-04-07T11:14:32.431Z,10.7
2023-04-07T11:15:48.679Z,9.9
2023-04-07T11:17:04.914Z,9.5
2023-04-07T11:18:21.164Z,9.4
2023-04-07T11:19:37.395Z,10
2023-04-07T11:20:53.634Z,9.4
2023-04-07T11:22:09.871Z,10.1
2023-04-07T11:24:42.363Z,9.1
2023-04-07T11:25:58.596Z,9.6
2023-04-07T11:27:14.831Z,8.7
2023-04-07T11:28:31.070Z,8.5
2023-04-07T11:29:46.333Z,8
2023-04-07T11:32:18.813Z,8.4
2023-04-07T11:33:35.052Z,8.3
2023-04-07T11:34:51.292Z,8.1
2023-04-07T11:36:07.526Z,8.8
2023-04-07T11:37:23.773Z,8.7
2023-04-07T11:38:40.012Z,8.8
2023-04-07T11:39:56.253Z,8.8
2023-04-07T11:41:12.497Z,8.6
2023-04-07T11:42:28.727Z,8.7
2023-04-07T11:43:44.972Z,9.1
2023-04-07T11:45:01.220Z,8.7
2023-04-07T11:47:32.717Z,8.7
2023-04-07T11:48:47.974Z,9.1
2023-04-07T11:50:03.233Z,9.2
2023-04-07T11:51:19.466Z,9.5
2023-04-07T11:52:35.700Z,8.9
2023-04-07T11:53:51.955Z,9.2
2023-04-07T11:55:08.191Z,8.3
2023-04-07T11:56:24.427Z,9
2023-04-07T11:57:40.668Z,8.1
2023-04-07T11:58:56.913Z,8.3
2023-04-07T12:00:13.150Z,8.4
2023-04-07T12:01:29.389Z,8.6
2023-04-07T12:02:45.622Z,9
2023-04-07T12:04:00.885Z,9
2023-04-07T12:05:16.149Z,8.8
2023-04-07T12:06:32.379Z,8.3
2023-04-07T12:07:48.625Z,8.7
2023-04-07T12:10:21.105Z,8.6
2023-04-07T12:11:37.352Z,8.9
2023-04-07T12:12:53.588Z,8.6
2023-04-07T12:14:09.834Z,8.4
2023-04-07T12:15:26.065Z,8.6
2023-04-07T12:16:42.298Z,8.5
2023-04-07T12:17:58.545Z,9
2023-04-07T12:19:14.786Z,9.1
2023-04-07T12:20:31.022Z,8.7
2023-04-07T12:21:46.280Z,8.8
2023-04-07T12:23:02.511Z,8.8
2023-04-07T12:24:18.760Z,8.5
2023-04-07T12:25:34.996Z,8.6
2023-04-07T12:26:51.248Z,8.6
2023-04-07T12:30:39.952Z,8.4
2023-04-07T12:33:11.456Z,8.4
2023-04-07T12:34:26.718Z,8.7
2023-04-07T12:35:41.981Z,8.7
2023-04-07T12:36:58.220Z,9
2023-04-07T12:38:14.457Z,9
2023-04-07T12:40:46.939Z,8.9
2023-04-07T12:42:03.187Z,8.9
2023-04-07T12:43:19.423Z,9
2023-04-07T12:44:35.656Z,9.1
2023-04-07T12:45:51.889Z,8.8
2023-04-07T12:47:08.133Z,8.5
2023-04-07T12:48:24.371Z,8.5
2023-04-07T12:49:40.618Z,8.4
2023-04-07T12:50:56.853Z,8.7
2023-04-07T12:52:12.117Z,8.2
2023-04-07T12:53:28.365Z,8.9
2023-04-07T12:54:44.605Z,8.1
2023-04-07T12:56:00.834Z,8.6
2023-04-07T12:57:17.080Z,8
2023-04-07T12:58:33.308Z,8.7
2023-04-07T12:59:49.566Z,8.7
2023-04-07T13:01:05.798Z,8.1
2023-04-07T13:03:37.296Z,8.4
2023-04-07T13:04:52.552Z,8.1
2023-04-07T13:06:08.783Z,8.1
2023-04-07T13:07:24.049Z,8
2023-04-07T13:08:39.301Z,8.1
2023-04-07T13:11:11.782Z,7.5
2023-04-07T13:12:28.036Z,7.4
2023-04-07T13:13:44.265Z,7.3
2023-04-07T13:15:00.516Z,7.6
2023-04-07T13:16:16.746Z,7.7
2023-04-07T13:18:49.227Z,8.1
2023-04-07T13:20:05.469Z,8.4
2023-04-07T13:21:21.712Z,8.1
2023-04-07T13:22:37.943Z,7.9
2023-04-07T13:23:53.205Z,7.9
2023-04-07T13:26:24.711Z,8.2
2023-04-07T13:27:40.942Z,8.4
2023-04-07T13:28:57.185Z,8.5
2023-04-07T13:30:13.423Z,8.3
2023-04-07T13:31:28.688Z,8
2023-04-07T13:34:01.165Z,8
2023-04-07T13:35:17.405Z,7.6
2023-04-07T13:36:33.645Z,7.8
2023-04-07T13:37:49.889Z,7.6
2023-04-07T13:39:06.118Z,7.9
2023-04-07T13:41:38.606Z,7.4
2023-04-07T13:42:53.873Z,7.3
2023-04-07T13:44:09.126Z,6.9
2023-04-07T13:45:25.363Z,7.1
2023-04-07T13:46:41.595Z,6.9
2023-04-07T13:49:14.078Z,6.6
2023-04-07T13:50:30.320Z,6.6
2023-04-07T13:51:46.555Z,6.5
2023-04-07T13:53:02.802Z,6.8
2023-04-07T13:54:19.053Z,6.6
2023-04-07T13:56:51.518Z,7
2023-04-07T13:58:07.763Z,6.9
2023-04-07T13:59:23.996Z,6.7
2023-04-07T14:00:39.251Z,7
2023-04-07T14:01:55.503Z,6.9
2023-04-07T14:03:11.742Z,7.9
2023-04-07T14:04:27.974Z,6.8
2023-04-07T14:05:44.227Z,6.6
2023-04-07T14:07:00.462Z,6.4
2023-04-07T14:08:16.709Z,6.6
2023-04-07T14:09:32.940Z,6.6
2023-04-07T14:12:05.419Z,6.4
2023-04-07T14:13:21.667Z,6.3
2023-04-07T14:14:37.892Z,6.3
2023-04-07T14:17:10.384Z,6.1
2023-04-07T14:18:25.630Z,6.2
2023-04-07T14:19:41.868Z,6.5
2023-04-07T14:20:58.124Z,6.1
2023-04-07T14:22:14.354Z,6.1
2023-04-07T14:23:30.594Z,6
2023-04-07T14:24:46.845Z,5.9
2023-04-07T14:27:19.312Z,6.1
2023-04-07T14:28:35.556Z,5.7
2023-04-07T14:29:51.794Z,6.1
2023-04-07T14:31:08.030Z,6.3
2023-04-07T14:32:24.284Z,6
2023-04-07T14:33:40.516Z,6.3
2023-04-07T14:34:56.755Z,5.9
2023-04-07T14:37:28.257Z,6.1
2023-04-07T14:38:44.499Z,6.1
2023-04-07T14:40:00.729Z,6
2023-04-07T14:42:33.204Z,5.8
2023-04-07T14:43:49.448Z,6.3
2023-04-07T14:45:05.694Z,6.2
2023-04-07T14:46:21.931Z,6.2
2023-04-07T14:47:38.172Z,6.4
2023-04-07T14:50:10.655Z,6.3
2023-04-07T14:51:26.882Z,7.1
2023-04-07T14:52:42.141Z,5.9
2023-04-07T14:53:58.380Z,6.1
2023-04-07T14:55:14.632Z,6.4
2023-04-07T14:57:47.105Z,7.3
2023-04-07T14:59:03.341Z,6.9
2023-04-07T15:00:19.584Z,7
2023-04-07T15:01:35.830Z,7
2023-04-07T15:02:52.076Z,6.8
2023-04-07T15:05:24.538Z,7.3
2023-04-07T15:06:40.779Z,7.2
2023-04-07T15:07:57.021Z,7.4
2023-04-07T15:09:12.279Z,7.5
2023-04-07T15:10:28.534Z,7.2
2023-04-07T15:11:44.774Z,7.4
2023-04-07T15:13:00.998Z,7.2
2023-04-07T15:15:33.488Z,7
2023-04-07T15:16:49.721Z,7.2
2023-04-07T15:18:05.958Z,6.9
2023-04-07T15:19:22.208Z,6.7
2023-04-07T15:20:38.444Z,6.7
2023-04-07T15:21:54.687Z,7.2
2023-04-07T15:23:10.922Z,6.9
2023-04-07T15:24:27.172Z,7
2023-04-07T15:25:42.431Z,7
2023-04-07T15:26:58.652Z,7.1
2023-04-07T15:28:14.893Z,6.7
2023-04-07T15:29:31.136Z,6.7
2023-04-07T15:30:47.370Z,7
2023-04-07T15:32:02.632Z,6.4
2023-04-07T15:33:17.887Z,6.5
2023-04-07T15:35:50.382Z,6.6
2023-04-07T15:37:06.615Z,6.7
2023-04-07T15:38:22.862Z,6.7
2023-04-07T15:40:55.337Z,6.6
2023-04-07T15:43:27.816Z,7.2
2023-04-07T15:44:44.049Z,6.9
2023-04-07T15:46:00.304Z,6.7
2023-04-07T15:47:16.534Z,6.1
2023-04-07T15:48:32.783Z,6.5
2023-04-07T15:49:48.043Z,6.6
2023-04-07T15:51:04.284Z,6.8
2023-04-07T15:52:19.545Z,7.6
2023-04-07T15:53:35.773Z,7.5
2023-04-07T15:54:52.014Z,7.5
2023-04-07T15:56:08.246Z,7.3
2023-04-07T15:58:40.744Z,7.6
2023-04-07T15:59:56.985Z,7.7
2023-04-07T16:01:13.205Z,7.5
2023-04-07T16:02:29.459Z,7.6
2023-04-07T16:03:45.702Z,7.5
2023-04-07T16:05:01.945Z,7.7
2023-04-07T16:06:18.166Z,7.7
2023-04-07T16:07:34.419Z,7.5
2023-04-07T16:08:49.671Z,7.4
2023-04-07T16:10:05.916Z,8
2023-04-07T16:11:22.144Z,7.8
2023-04-07T16:13:54.625Z,7.4
2023-04-07T16:15:10.873Z,7.6
2023-04-07T16:16:27.118Z,7.4
2023-04-07T16:17:43.347Z,7.7
2023-04-07T16:18:59.595Z,7.6
2023-04-07T16:21:32.078Z,7.8
2023-04-07T16:22:48.307Z,8.1
2023-04-07T16:24:04.542Z,7.8
2023-04-07T16:25:19.812Z,7.8
2023-04-07T16:26:36.055Z,7.4
2023-04-07T16:27:52.296Z,7.7
2023-04-07T16:29:08.524Z,7.5
2023-04-07T16:30:24.775Z,7.6
2023-04-07T16:31:41.012Z,7.8
2023-04-07T16:32:57.255Z,7.1
2023-04-07T16:34:13.492Z,7.3
2023-04-07T16:35:29.719Z,7.7
2023-04-07T16:36:45.966Z,7.2
2023-04-07T16:38:02.205Z,6.8
2023-04-07T16:39:18.440Z,7.1
2023-04-07T16:40:33.703Z,7.3
2023-04-07T16:41:48.961Z,6.8
2023-04-07T16:44:21.453Z,6.8
2023-04-07T16:45:37.684Z,6.9
2023-04-07T16:46:53.933Z,7.1
2023-04-07T16:48:10.162Z,7.2
2023-04-07T16:49:26.408Z,6.9
2023-04-07T16:51:58.880Z,7.1
2023-04-07T16:53:15.112Z,6.6
2023-04-07T16:54:31.364Z,6.7
2023-04-07T16:55:47.607Z,7
2023-04-07T16:57:02.865Z,6.9
2023-04-07T16:59:34.364Z,7.1
2023-04-07T17:00:50.000Z,6.5
2023-04-07T17:02:06.835Z,6.1
2023-04-07T17:03:23.083Z,6
2023-04-07T17:04:39.313Z,6
2023-04-07T17:05:55.563Z,5.9
2023-04-07T17:07:11.806Z,6
2023-04-07T17:08:28.029Z,6.1
2023-04-07T17:09:44.288Z,5.8
2023-04-07T17:11:00.518Z,6.5
2023-04-07T17:12:15.780Z,5.5
2023-04-07T17:13:31.034Z,5.9
2023-04-07T17:14:47.281Z,5.4
2023-04-07T17:16:03.516Z,5.5
2023-04-07T17:17:19.762Z,6.3
2023-04-07T17:18:36.001Z,5.6
2023-04-07T17:19:52.231Z,5.7
2023-04-07T17:22:24.711Z,5.6
2023-04-07T17:23:40.949Z,4.9
2023-04-07T17:24:57.206Z,5.3
2023-04-07T17:26:13.441Z,5.2
2023-04-07T17:27:29.671Z,5.2
2023-04-07T17:30:02.159Z,4.7
2023-04-07T17:31:17.425Z,4.6
2023-04-07T17:32:32.674Z,4.3
2023-04-07T17:33:48.925Z,4.6
2023-04-07T17:35:05.150Z,4
2023-04-07T17:37:37.643Z,4
2023-04-07T17:38:53.885Z,4.1
2023-04-07T17:40:10.128Z,4
2023-04-07T17:41:26.350Z,4.1
2023-04-07T17:42:42.600Z,3.9
2023-04-07T17:43:58.841Z,3.9
2023-04-07T17:45:15.073Z,4.3
2023-04-07T17:47:46.578Z,4.5
2023-04-07T17:49:01.840Z,4.9
2023-04-07T17:50:18.078Z,4.6
2023-04-07T17:52:50.551Z,4.9
2023-04-07T17:54:06.797Z,4.9
2023-04-07T17:55:23.046Z,4.7
2023-04-07T17:56:39.280Z,4.9
2023-04-07T17:57:55.525Z,4.5
2023-04-07T17:59:11.765Z,4.9
2023-04-07T18:00:28.002Z,4.6
2023-04-07T18:01:44.242Z,4.8
2023-04-07T18:03:00.485Z,4.6
2023-04-07T18:04:16.710Z,4.6
2023-04-07T18:05:33.089Z,4.7
2023-04-07T18:08:05.572Z,4.8
2023-04-07T18:09:21.809Z,4.9
2023-04-07T18:10:38.035Z,5
2023-04-07T18:11:54.289Z,4.8
2023-04-07T18:13:10.527Z,5
2023-04-07T18:15:43.005Z,4.1
2023-04-07T18:16:59.250Z,4.8
2023-04-07T18:18:15.486Z,4.8
2023-04-07T18:19:31.729Z,4.9
2023-04-07T18:20:47.965Z,4.2
2023-04-07T18:22:03.232Z,4.5
2023-04-07T18:23:19.464Z,4.1
2023-04-07T18:24:35.710Z,4.4
2023-04-07T18:25:52.002Z,4.8
2023-04-07T18:27:08.295Z,4.6
2023-04-07T18:30:57.169Z,4.8
2023-04-07T18:32:13.478Z,5.5
2023-04-07T18:33:29.759Z,5.4
2023-04-07T18:34:46.061Z,5.6
2023-04-07T18:36:02.348Z,6.1
2023-04-07T18:37:18.652Z,5.6
2023-04-07T18:38:34.949Z,5.7
2023-04-07T18:39:50.255Z,5.7
2023-04-07T18:41:06.553Z,6
2023-04-07T18:42:22.846Z,6
2023-04-07T18:43:39.126Z,5.8
2023-04-07T18:46:11.733Z,6
2023-04-07T18:47:28.022Z,6
2023-04-07T18:48:44.314Z,6.5
2023-04-07T18:50:00.606Z,6.3
2023-04-07T18:51:16.892Z,6.2